Flight Track Log - Related Links

Times and Time Zones

All times are in EDT time to prevent confusion due to time zone crossing. See the VOODOO1 flight status page for this flight to view local times or setup timezone preferences in your user account.

Time Position Orientation Groundspeed Altitude Reporting Facility
EDT Latitude Longitude Course Direction KTS MPH feet Rate Location/Type
Thu 10:49:00 AM 42.1447 -77.0875 264° West  Level FlightAware Approximate
Thu 10:50:00 AM 42.1416 -77.1282 264° West  Level FlightAware Approximate
Thu 10:51:00 AM 42.1385 -77.1689 264° West  Level FlightAware Approximate
Thu 10:52:00 AM 42.1354 -77.2095 264° West  Level FlightAware Approximate
Thu 10:53:00 AM 42.1323 -77.2502 264° West  Level FlightAware Approximate
Thu 10:53:16 AM 42.1133 -77.3053 264° West 122 140 4,200  Level Cleveland Center
Thu 10:54:00 AM 42.1291 -77.2909 264° West  Level FlightAware Approximate
Thu 10:54:16 AM 42.1125 -77.3500 269° West 122 140 4,200  Level Cleveland Center
Thu 10:55:00 AM 42.1259 -77.3316 264° West  Level FlightAware Approximate
Thu 10:55:16 AM 42.1097 -77.3922 265° West 122 140 4,200  Level Cleveland Center
Thu 10:56:00 AM 42.1228 -77.3723 264° West  Level FlightAware Approximate
Thu 10:56:17 AM 42.1044 -77.4344 260° West 117 135 4,100  Level Cleveland Center
Thu 10:57:16 AM 42.1014 -77.4739 264° West 117 135 4,100  Level Cleveland Center
Thu 10:58:16 AM 42.0964 -77.5161 261° West 117 135 4,100  Level Cleveland Center
Thu 10:59:16 AM 42.0850 -77.5586 250° West 122 140 4,100  Level Cleveland Center
Thu 11:00:16 AM 42.0797 -77.6008 260° West 122 140 4,100  Level Cleveland Center
Thu 11:01:16 AM 42.0808 -77.6456 272° West 122 140 4,100  Level Cleveland Center
Thu 11:02:16 AM 42.0842 -77.6872 276° West 122 140 4,100  Level Cleveland Center
Thu 11:03:16 AM 42.0914 -77.7319 282° West 122 140 4,100  Level Cleveland Center
Thu 11:04:16 AM 42.0925 -77.7764 272° West 122 140 4,100  Level Cleveland Center
Thu 11:05:16 AM 42.0894 -77.8186 264° West 122 140 4,100  Level Cleveland Center
Thu 11:06:16 AM 42.0903 -77.8578 272° West 122 140 4,100  Level Cleveland Center
Thu 11:07:16 AM 42.0914 -77.9025 272° West 122 140 4,100  Level Cleveland Center
Thu 11:08:16 AM 42.0944 -77.9444 276° West 122 140 4,100  Level Cleveland Center
Thu 11:09:16 AM 42.0911 -77.9864 264° West 122 140 4,100  Level Cleveland Center
Thu 11:10:16 AM 42.0858 -78.0258 260° West 122 140 4,100  Level Cleveland Center
Thu 11:11:16 AM 42.0764 -78.0653 252° West 122 140 4,100  Level Cleveland Center
Thu 11:12:16 AM 42.0644 -78.1022 246° West 122 140 4,100  Level Cleveland Center
Thu 11:13:16 AM 42.0572 -78.1444 257° West 122 140 4,100  Level Cleveland Center
Thu 11:14:16 AM 42.0475 -78.1811 250° West 117 135 4,100  Level Cleveland Center
Thu 11:15:16 AM 42.0358 -78.2181 247° West 117 135 4,100  Level Cleveland Center
Thu 11:16:16 AM 42.0261 -78.2575 252° West 112 129 4,100  Level Cleveland Center
Thu 11:17:16 AM 42.0164 -78.2969 252° West 112 129 4,100  Level Cleveland Center
Thu 11:19:16 AM 41.9972 -78.3786 252° West 112 129 4,100  Level Cleveland Center
Thu 11:20:16 AM 41.9875 -78.4181 252° West 112 129 4,100  Level Cleveland Center
Thu 11:21:16 AM 41.9758 -78.4575 248° West 112 129 4,100  Level Cleveland Center
Thu 11:22:16 AM 41.9661 -78.4969 252° West 112 129 4,100  Level Cleveland Center
Thu 11:23:16 AM 41.9564 -78.5392 253° West 117 135 4,100  Level Cleveland Center
Thu 11:24:16 AM 41.9447 -78.5786 248° West 117 135 4,100  Level Cleveland Center
Thu 11:25:16 AM 41.9369 -78.6181 255° West 117 135 4,100  Level Cleveland Center
Thu 11:26:16 AM 41.9253 -78.6603 250° West 117 135 4,100 50 Level Cleveland Center
Thu 11:27:16 AM 41.9133 -78.7025 249° West 117 135 4,200 50 Climbing Cleveland Center
Thu 11:28:16 AM 41.8931 -78.7450 237° Southwest 117 135 4,200  Level Cleveland Center
Thu 11:29:16 AM 41.8728 -78.7789 231° Southwest 122 140 4,200  Level Cleveland Center
Thu 11:30:16 AM 41.8547 -78.8186 239° Southwest 127 146 4,200  Level Cleveland Center
Thu 11:31:16 AM 41.8408 -78.8581 245° Southwest 122 140 4,200  Level Cleveland Center
Thu 11:32:16 AM 41.8267 -78.8972 244° Southwest 122 140 4,200  Level Cleveland Center
Thu 11:33:16 AM 41.8128 -78.9367 245° Southwest 122 140 4,200  Level Cleveland Center
Thu 11:34:16 AM 41.7986 -78.9789 246° West 122 140 4,200  Level Cleveland Center
Thu 11:35:16 AM 41.7889 -79.0208 253° West 122 140 4,200  Level Cleveland Center
Thu 11:36:16 AM 41.7789 -79.0628 252° West 122 140 4,200  Level Cleveland Center
Thu 11:37:16 AM 41.7750 -79.0797 253° West 122 140 4,200 500 Level Cleveland Center
Thu 11:38:16 AM 41.7750 -79.0797 270° West 122 140 5,200 450 Climbing Cleveland Center
Thu 11:39:16 AM 41.7642 -79.2025 263° West 122 140 5,100  Descending Cleveland Center
Thu 11:40:16 AM 41.7522 -79.2472 250° West 127 146 5,200 50 Climbing Cleveland Center
Thu 11:41:16 AM 41.7422 -79.2864 251° West 127 146 5,200  Level Cleveland Center
Thu 11:42:16 AM 41.7322 -79.3339 254° West 127 146 5,200  Level Cleveland Center
Thu 11:43:16 AM 41.7222 -79.3758 252° West 127 146 5,200  Level Cleveland Center
Thu 11:44:16 AM 41.7081 -79.4206 247° West 127 146 5,200  Level Cleveland Center
Thu 11:45:16 AM 41.6833 -79.4517 223° Southwest 132 152 5,200  Level Cleveland Center
Thu 11:46:17 AM 41.6650 -79.4908 238° Southwest 132 152 5,200  Level Cleveland Center
Thu 11:47:16 AM 41.6425 -79.5300 232° Southwest 132 152 5,200  Level Cleveland Center
Thu 11:48:16 AM 41.6178 -79.5667 228° Southwest 132 152 5,200  Level Cleveland Center
Thu 11:49:16 AM 41.5953 -79.6058 232° Southwest 132 152 5,200  Level Cleveland Center
Thu 11:50:16 AM 41.5725 -79.6422 230° Southwest 132 152 5,200  Level Cleveland Center
Thu 11:51:16 AM 41.5458 -79.6786 226° Southwest 132 152 5,200  Level Cleveland Center
Thu 11:52:16 AM 41.5169 -79.7097 219° Southwest 137 158 5,200  Level Cleveland Center
Thu 11:53:16 AM 41.5025 -79.7514 245° Southwest 137 158 5,200 -250 Level Cleveland Center
Thu 11:54:16 AM 41.4778 -79.7878 228° Southwest 137 158 4,700 -550 Descending Cleveland Center
Thu 11:55:16 AM 41.4550 -79.8267 232° Southwest 137 158 4,100 -347 Descending Cleveland Center
Thu 11:56:17 AM 41.4325 -79.8631 230° Southwest 132 152 4,000 -50 Descending Cleveland Center
Thu 11:57:16 AM 41.4161 -79.9047 242° Southwest 132 152 4,000  Level Cleveland Center
Thu 11:58:16 AM 41.3953 -79.9411 233° Southwest 132 152 4,000  Level Cleveland Center
Thu 11:59:16 AM 41.3769 -79.9828 240° Southwest 127 146 4,000  Level Cleveland Center
Thu 12:01:00 PM 41.3388 -80.0411 239° Southwest  Level FlightAware Approximate
Thu 12:08:00 PM 41.2199 -80.3038 240° Southwest  Level FlightAware Approximate
Thu 12:09:00 PM 41.2036 -80.3418 240° Southwest  Level FlightAware Approximate
Thu 12:10:00 PM 41.1873 -80.3798 240° Southwest  Level FlightAware Approximate
Thu 12:11:00 PM 41.1710 -80.4178 240° Southwest  Level FlightAware Approximate
Thu 12:12:00 PM 41.1547 -80.4558 240° Southwest  Level FlightAware Approximate
Thu 12:13:00 PM 41.1344 -80.4901 229° Southwest  Level FlightAware Approximate
Thu 12:14:00 PM 41.1167 -80.5248 270° West  Level FlightAware Approximate
Thu 12:15:00 PM 41.1333 -80.5464 270° West  Level FlightAware Approximate
Thu 12:16:00 PM 41.1608 -80.5608 323° Northwest  Level FlightAware Approximate
Thu 12:17:00 PM 41.1907 -80.5787 339° North  Level FlightAware Approximate
Thu 12:18:00 PM 41.2152 -80.6062 312° West  Level FlightAware Approximate
Thu 12:19:00 PM 41.2364 -80.6395 304° West  Level FlightAware Approximate
Thu 12:20:00 PM 41.2500 -80.6667 304° West  Level FlightAware Approximate

Login

Don't have an account? Register now (free) for customized features, flight alerts, and more!